createdAt,value
2018-07-29T00:07:48.728Z,77.30
2018-07-29T00:10:24.086Z,77.70
2018-07-29T00:13:02.534Z,78.60
2018-07-29T00:15:45.137Z,79.20
2018-07-29T00:18:21.581Z,80.20
2018-07-29T00:20:55.592Z,79.60
2018-07-29T00:23:34.353Z,79.90
2018-07-29T00:26:13.882Z,80.30
2018-07-29T00:28:57.266Z,81.50
2018-07-29T00:31:47.189Z,81.70
2018-07-29T00:34:16.990Z,80.40
2018-07-29T00:36:47.079Z,80.10
2018-07-29T00:39:16.889Z,81.30
2018-07-29T00:44:16.065Z,81.10
2018-07-29T00:46:45.754Z,81.90
2018-07-29T00:49:15.649Z,81.60
2018-07-29T00:51:45.451Z,80.90
2018-07-29T00:54:15.399Z,80.90
2018-07-29T00:56:45.146Z,82.70
2018-07-29T00:59:14.926Z,82.40
2018-07-29T01:01:45.783Z,81.70
2018-07-29T01:04:15.829Z,81.40
2018-07-29T01:09:15.056Z,82.40
2018-07-29T01:11:44.860Z,81.20
2018-07-29T01:14:14.583Z,81.30
2018-07-29T01:19:13.912Z,80.90
2018-07-29T01:21:44.316Z,79.90
2018-07-29T01:24:15.635Z,81.40
2018-07-29T01:26:45.382Z,81.80
2018-07-29T01:29:15.193Z,80.10
2018-07-29T01:31:48.050Z,79.10
2018-07-29T01:34:19.906Z,78.80
2018-07-29T01:36:51.608Z,78.00
2018-07-29T01:41:51.432Z,77.30
2018-07-29T01:44:21.163Z,77.40
2018-07-29T01:46:51.364Z,76.50
2018-07-29T01:49:21.744Z,77.00
2018-07-29T01:51:53.131Z,78.60
2018-07-29T01:54:24.083Z,78.80
2018-07-29T01:56:54.119Z,78.50
2018-07-29T01:59:26.164Z,78.10
2018-07-29T02:01:58.748Z,78.10
2018-07-29T02:04:29.638Z,78.20
2018-07-29T02:07:02.876Z,78.00
2018-07-29T02:12:04.932Z,78.10
2018-07-29T02:14:36.302Z,78.00
2018-07-29T02:19:37.810Z,79.50
2018-07-29T02:22:09.358Z,80.80
2018-07-29T02:24:40.947Z,81.80
2018-07-29T02:27:13.777Z,81.80
2018-07-29T02:29:43.818Z,82.10
2018-07-29T02:32:14.778Z,81.40
2018-07-29T02:34:45.900Z,81.30
2018-07-29T02:39:55.463Z,81.50
2018-07-29T02:42:26.927Z,81.50
2018-07-29T02:44:58.142Z,81.10
2018-07-29T02:49:59.761Z,80.20
2018-07-29T02:52:31.200Z,79.50
2018-07-29T02:55:03.080Z,79.80
2018-07-29T02:57:33.906Z,79.10
2018-07-29T03:00:05.827Z,78.50
2018-07-29T03:02:39.186Z,78.10
2018-07-29T03:05:14.898Z,78.20
2018-07-29T03:07:46.942Z,78.70
2018-07-29T03:10:18.146Z,78.20
2018-07-29T03:12:49.824Z,77.50
2018-07-29T03:15:22.668Z,78.00
2018-07-29T03:17:54.885Z,78.00
2018-07-29T03:20:26.334Z,77.60
2018-07-29T03:23:02.417Z,78.10
2018-07-29T03:28:22.214Z,77.90
2018-07-29T03:31:04.066Z,77.70
2018-07-29T03:33:42.348Z,77.60
2018-07-29T03:36:20.334Z,77.30
2018-07-29T03:41:38.687Z,78.60
2018-07-29T03:44:21.000Z,78.40
2018-07-29T03:47:01.794Z,77.50
2018-07-29T03:49:44.638Z,76.70
2018-07-29T03:52:27.705Z,77.70
2018-07-29T03:55:06.342Z,77.30
2018-07-29T04:00:21.114Z,77.60
2018-07-29T04:02:56.675Z,77.60
2018-07-29T04:08:08.480Z,76.20
2018-07-29T04:10:53.037Z,78.30
2018-07-29T04:13:33.282Z,78.90
2018-07-29T04:16:12.198Z,78.10
2018-07-29T04:18:54.436Z,79.10
2018-07-29T04:24:09.635Z,78.20
2018-07-29T04:29:23.872Z,76.10
2018-07-29T04:31:59.231Z,73.90
2018-07-29T04:34:40.207Z,74.80
2018-07-29T04:37:20.868Z,73.20
2018-07-29T04:39:58.416Z,73.90
2018-07-29T04:42:34.373Z,72.30
2018-07-29T04:45:13.327Z,73.40
2018-07-29T04:47:52.039Z,73.70
2018-07-29T04:50:26.515Z,72.30
2018-07-29T04:55:42.796Z,71.80
2018-07-29T04:58:20.604Z,72.30
2018-07-29T05:00:56.473Z,69.80
2018-07-29T05:03:30.822Z,71.00
2018-07-29T05:06:09.716Z,73.10
2018-07-29T05:08:44.744Z,72.40
2018-07-29T05:11:24.283Z,70.20
2018-07-29T05:14:03.722Z,69.80
2018-07-29T05:16:44.703Z,69.40
2018-07-29T05:19:28.345Z,66.50
2018-07-29T05:24:37.901Z,65.70
2018-07-29T05:27:14.965Z,66.20
2018-07-29T05:29:56.800Z,64.60
2018-07-29T05:32:37.337Z,64.20
2018-07-29T05:35:15.272Z,62.70
2018-07-29T05:37:51.508Z,63.30
2018-07-29T05:40:31.161Z,64.80
2018-07-29T05:45:36.314Z,64.40
2018-07-29T05:48:14.429Z,64.40
2018-07-29T05:50:55.813Z,64.20
2018-07-29T05:53:31.963Z,63.60
2018-07-29T05:56:12.036Z,62.80
2018-07-29T06:01:35.105Z,62.50
2018-07-29T06:04:16.096Z,61.80
2018-07-29T06:06:55.613Z,60.10
2018-07-29T06:09:36.131Z,61.80
2018-07-29T06:14:49.740Z,59.80
2018-07-29T06:17:31.380Z,59.30
2018-07-29T06:20:06.156Z,59.70
2018-07-29T06:22:44.428Z,60.40
2018-07-29T06:25:21.850Z,59.60
2018-07-29T06:28:04.684Z,59.80
2018-07-29T06:30:50.618Z,59.90
2018-07-29T06:33:25.848Z,60.20
2018-07-29T06:36:13.517Z,59.80
2018-07-29T06:39:00.985Z,59.60
2018-07-29T06:41:34.707Z,60.40
2018-07-29T06:44:14.928Z,60.20
2018-07-29T06:46:50.078Z,58.80
2018-07-29T06:49:29.280Z,59.50
2018-07-29T06:52:03.570Z,59.70
2018-07-29T06:54:43.844Z,59.70
2018-07-29T06:57:23.981Z,60.00
2018-07-29T06:59:57.815Z,59.20
2018-07-29T07:02:35.549Z,58.80
2018-07-29T07:05:08.944Z,57.80
2018-07-29T07:07:47.845Z,58.40
2018-07-29T07:10:26.490Z,58.50
2018-07-29T07:15:40.380Z,57.90
2018-07-29T07:18:19.453Z,57.60
2018-07-29T07:20:56.352Z,57.00
2018-07-29T07:26:09.472Z,57.20
2018-07-29T07:31:31.809Z,55.80
2018-07-29T07:34:14.302Z,56.90
2018-07-29T07:39:30.551Z,56.00
2018-07-29T07:42:10.814Z,55.20
2018-07-29T07:44:50.887Z,55.50
2018-07-29T07:47:26.566Z,56.00
2018-07-29T07:52:48.130Z,53.90
2018-07-29T07:55:29.804Z,54.40
2018-07-29T07:58:07.907Z,53.20
2018-07-29T08:00:46.371Z,54.40
2018-07-29T08:03:26.973Z,53.70
2018-07-29T08:06:03.373Z,53.80
2018-07-29T08:08:42.623Z,53.40
2018-07-29T08:11:22.266Z,53.50
2018-07-29T08:13:59.320Z,53.00
2018-07-29T08:16:34.691Z,53.90
2018-07-29T08:19:12.972Z,52.30
2018-07-29T08:21:54.275Z,52.90
2018-07-29T08:24:37.167Z,52.60
2018-07-29T08:29:56.148Z,53.10
2018-07-29T08:32:39.456Z,53.20
2018-07-29T08:35:19.207Z,51.80
2018-07-29T08:37:59.668Z,51.40
2018-07-29T08:40:39.232Z,51.10
2018-07-29T08:43:17.980Z,51.10
2018-07-29T08:45:55.592Z,51.90
2018-07-29T08:51:14.520Z,50.30
2018-07-29T08:53:54.038Z,50.10
2018-07-29T08:56:33.093Z,49.60
2018-07-29T08:59:09.259Z,49.10
2018-07-29T09:01:50.827Z,48.80
2018-07-29T09:04:29.908Z,49.60
2018-07-29T09:07:06.273Z,49.30
2018-07-29T09:09:45.454Z,50.30
2018-07-29T09:12:23.646Z,48.90
2018-07-29T09:15:05.814Z,48.30
2018-07-29T09:17:48.227Z,47.90
2018-07-29T09:20:26.665Z,47.50
2018-07-29T09:23:10.506Z,50.00
2018-07-29T09:25:45.601Z,47.50
2018-07-29T09:28:23.466Z,48.00
2018-07-29T09:31:00.705Z,49.20
2018-07-29T09:33:38.304Z,45.50
2018-07-29T09:36:14.040Z,47.40
2018-07-29T09:38:57.084Z,45.30
2018-07-29T09:41:38.169Z,46.10
2018-07-29T09:44:13.919Z,45.30
2018-07-29T09:46:53.144Z,44.80
2018-07-29T09:49:29.294Z,45.50
2018-07-29T09:52:08.850Z,44.90
2018-07-29T09:54:50.523Z,45.50
2018-07-29T09:57:23.607Z,46.30
2018-07-29T09:59:59.240Z,45.70
2018-07-29T10:02:39.556Z,46.20
2018-07-29T10:05:18.756Z,47.20
2018-07-29T10:07:52.898Z,46.10
2018-07-29T10:10:32.332Z,45.70
2018-07-29T10:13:15.349Z,44.60
2018-07-29T10:15:54.804Z,44.90
2018-07-29T10:18:31.953Z,44.80
2018-07-29T10:21:12.739Z,45.30
2018-07-29T10:23:48.215Z,44.50
2018-07-29T10:26:24.341Z,44.40
2018-07-29T10:29:02.566Z,45.20
2018-07-29T10:34:08.814Z,45.00
2018-07-29T10:36:48.333Z,43.30
2018-07-29T10:39:28.988Z,43.60
2018-07-29T10:44:50.209Z,44.10
2018-07-29T10:47:29.040Z,45.70
2018-07-29T10:50:12.381Z,44.40
2018-07-29T10:52:49.786Z,43.50
2018-07-29T10:55:25.095Z,44.70
2018-07-29T10:58:02.548Z,41.80
2018-07-29T11:00:39.052Z,43.00
2018-07-29T11:03:14.053Z,41.30
2018-07-29T11:05:49.004Z,39.80
2018-07-29T11:08:31.652Z,40.20
2018-07-29T11:11:10.535Z,39.70
2018-07-29T11:13:49.409Z,39.70
2018-07-29T11:16:28.169Z,40.40
2018-07-29T11:19:13.399Z,40.80
2018-07-29T11:21:52.043Z,38.80
2018-07-29T11:24:26.717Z,38.70
2018-07-29T11:27:03.710Z,38.30
2018-07-29T11:29:43.709Z,37.70
2018-07-29T11:32:18.752Z,37.50
2018-07-29T11:35:00.069Z,36.30
2018-07-29T11:37:34.681Z,37.20
2018-07-29T11:40:15.084Z,39.30
2018-07-29T11:42:52.125Z,37.30
2018-07-29T11:45:28.538Z,36.30
2018-07-29T11:48:10.182Z,38.10
2018-07-29T11:50:50.826Z,37.60
2018-07-29T11:53:27.651Z,36.60
2018-07-29T11:56:03.540Z,35.40
2018-07-29T11:58:39.695Z,36.60
2018-07-29T12:01:17.464Z,38.40
2018-07-29T12:06:35.927Z,38.50
2018-07-29T12:09:18.777Z,35.70
2018-07-29T12:11:58.143Z,35.30
2018-07-29T12:14:35.411Z,36.10
2018-07-29T12:17:10.881Z,37.80
2018-07-29T12:19:45.188Z,36.20
2018-07-29T12:22:20.181Z,38.60
2018-07-29T12:24:58.813Z,36.60
2018-07-29T12:27:39.484Z,35.40
2018-07-29T12:30:15.116Z,37.00
2018-07-29T12:32:53.315Z,36.10
2018-07-29T12:35:30.327Z,36.90
2018-07-29T12:38:08.929Z,35.50
2018-07-29T12:40:48.544Z,34.80
2018-07-29T12:43:29.202Z,34.80
2018-07-29T12:46:07.665Z,37.20
2018-07-29T12:48:45.251Z,35.10
2018-07-29T12:51:22.644Z,34.20
2018-07-29T12:54:03.010Z,35.00
2018-07-29T12:56:38.462Z,36.20
2018-07-29T12:59:22.207Z,34.80
2018-07-29T13:01:58.077Z,32.90
2018-07-29T13:04:37.798Z,32.30
2018-07-29T13:09:57.791Z,35.10
2018-07-29T13:12:37.098Z,37.50
2018-07-29T13:15:12.761Z,35.50
2018-07-29T13:20:33.337Z,36.20
2018-07-29T13:23:13.977Z,36.80
2018-07-29T13:28:26.561Z,38.30
2018-07-29T13:31:07.706Z,38.80
2018-07-29T13:33:45.156Z,36.70
2018-07-29T13:36:20.484Z,38.10
2018-07-29T13:38:55.913Z,35.90
2018-07-29T13:41:37.430Z,37.30
2018-07-29T13:44:18.862Z,38.70
2018-07-29T13:46:58.253Z,38.60
2018-07-29T13:49:35.323Z,38.80
2018-07-29T13:52:12.949Z,40.20
2018-07-29T13:54:52.588Z,39.40
2018-07-29T13:57:31.526Z,39.90
2018-07-29T14:00:18.960Z,40.20
2018-07-29T14:02:57.037Z,40.50
2018-07-29T14:05:30.644Z,39.30
2018-07-29T14:08:10.613Z,39.60
2018-07-29T14:10:50.829Z,39.80
2018-07-29T14:13:36.290Z,40.70
2018-07-29T14:16:17.962Z,39.40
2018-07-29T14:18:59.464Z,41.00
2018-07-29T14:21:35.492Z,40.40
2018-07-29T14:29:55.256Z,40.50
2018-07-29T14:32:37.609Z,41.90
2018-07-29T14:35:20.991Z,40.50
2018-07-29T14:38:00.383Z,42.00
2018-07-29T14:40:45.761Z,40.90
2018-07-29T14:43:28.812Z,41.70
2018-07-29T14:46:11.333Z,40.30
2018-07-29T14:48:53.936Z,40.60
2018-07-29T14:54:17.036Z,45.50
2018-07-29T14:56:58.507Z,47.10
2018-07-29T15:02:14.261Z,47.70
2018-07-29T15:04:49.130Z,47.50
2018-07-29T15:07:31.478Z,48.00
2018-07-29T15:10:15.703Z,48.10
2018-07-29T15:15:39.862Z,47.40
2018-07-29T15:18:26.440Z,47.60
2018-07-29T15:21:09.941Z,47.60
2018-07-29T15:23:45.836Z,47.00
2018-07-29T15:26:28.863Z,47.60
2018-07-29T15:29:08.782Z,46.80
2018-07-29T15:31:45.892Z,47.70
2018-07-29T15:34:28.850Z,47.70
2018-07-29T15:37:14.210Z,47.80
2018-07-29T15:39:54.555Z,47.70
2018-07-29T15:42:33.390Z,47.90
2018-07-29T15:45:16.055Z,48.60
2018-07-29T15:47:52.380Z,48.10
2018-07-29T15:50:27.346Z,47.70
2018-07-29T15:53:06.055Z,48.10
2018-07-29T15:55:48.002Z,48.30
2018-07-29T15:58:30.535Z,48.90
2018-07-29T16:01:18.213Z,48.50
2018-07-29T16:03:54.161Z,46.80
2018-07-29T16:06:33.733Z,46.90
2018-07-29T16:09:20.291Z,46.50
2018-07-29T16:20:11.165Z,46.10
2018-07-29T16:22:54.677Z,45.80
2018-07-29T16:25:34.707Z,45.50
2018-07-29T16:28:12.061Z,46.40
2018-07-29T16:30:53.224Z,46.50
2018-07-29T16:33:32.846Z,46.00
2018-07-29T16:41:31.088Z,46.60
2018-07-29T16:44:14.361Z,46.10
2018-07-29T16:46:56.710Z,46.40
2018-07-29T16:49:42.027Z,46.90
2018-07-29T16:52:21.559Z,46.70
2018-07-29T16:54:57.865Z,47.30
2018-07-29T16:57:42.162Z,46.90
2018-07-29T17:00:24.057Z,47.10
2018-07-29T17:03:06.874Z,46.90
2018-07-29T17:05:46.384Z,46.60
2018-07-29T17:08:24.482Z,47.20
2018-07-29T17:11:07.099Z,46.80
2018-07-29T17:13:41.204Z,45.90
2018-07-29T17:16:22.316Z,47.20
2018-07-29T17:19:02.901Z,46.50
2018-07-29T17:21:42.966Z,46.60
2018-07-29T17:24:26.328Z,46.20
2018-07-29T17:29:51.859Z,47.20
2018-07-29T17:32:32.752Z,47.10
2018-07-29T17:35:16.084Z,48.60
2018-07-29T17:37:56.024Z,47.50
2018-07-29T17:40:32.278Z,48.20
2018-07-29T17:43:21.132Z,48.40
2018-07-29T17:46:00.418Z,48.50
2018-07-29T17:48:43.244Z,49.10
2018-07-29T17:51:27.495Z,48.60
2018-07-29T17:54:11.605Z,49.20
2018-07-29T17:56:51.080Z,49.60
2018-07-29T17:59:34.224Z,49.00
2018-07-29T18:02:16.074Z,49.10
2018-07-29T18:04:58.983Z,49.70
2018-07-29T18:07:34.896Z,50.00
2018-07-29T18:10:13.007Z,49.80
2018-07-29T18:12:49.234Z,49.70
2018-07-29T18:15:38.279Z,49.90
2018-07-29T18:18:13.046Z,48.90
2018-07-29T18:26:09.391Z,52.20
2018-07-29T18:28:47.551Z,52.10
2018-07-29T18:31:27.779Z,52.40
2018-07-29T18:36:50.857Z,53.00
2018-07-29T18:39:28.745Z,52.90
2018-07-29T18:42:08.996Z,52.60
2018-07-29T18:44:55.132Z,53.00
2018-07-29T18:52:51.938Z,54.10
2018-07-29T18:55:29.299Z,53.80
2018-07-29T18:58:08.316Z,54.20
2018-07-29T19:00:47.986Z,53.90
2018-07-29T19:03:24.665Z,53.80
2018-07-29T19:06:01.937Z,54.00
2018-07-29T19:11:31.136Z,54.80
2018-07-29T19:17:00.973Z,55.40
2018-07-29T19:19:39.827Z,56.50
2018-07-29T19:25:01.548Z,57.60
2018-07-29T19:27:40.864Z,57.00
2018-07-29T19:30:24.639Z,56.90
2018-07-29T19:33:09.517Z,57.40
2018-07-29T19:35:52.025Z,57.90
2018-07-29T19:38:27.621Z,57.60
2018-07-29T19:41:07.237Z,58.20
2018-07-29T19:43:49.609Z,58.20
2018-07-29T19:46:27.273Z,57.60
2018-07-29T19:49:11.832Z,59.10
2018-07-29T19:51:51.307Z,58.80
2018-07-29T19:54:31.953Z,58.10
2018-07-29T19:57:09.358Z,57.80
2018-07-29T19:59:50.537Z,57.90
2018-07-29T20:02:27.292Z,59.20
2018-07-29T20:05:03.407Z,59.20
2018-07-29T20:10:37.902Z,59.10
2018-07-29T20:13:22.177Z,59.90
2018-07-29T20:16:01.218Z,60.30
2018-07-29T20:18:34.851Z,60.50
2018-07-29T20:21:13.014Z,59.80
2018-07-29T20:23:51.896Z,60.20
2018-07-29T20:29:08.597Z,61.60
2018-07-29T20:31:49.304Z,60.50
2018-07-29T20:34:28.978Z,59.70
2018-07-29T20:37:07.701Z,59.30
2018-07-29T20:42:27.801Z,59.00
2018-07-29T20:45:08.829Z,59.10
2018-07-29T20:47:50.686Z,59.50
2018-07-29T20:50:31.093Z,60.40
2018-07-29T20:53:13.755Z,60.90
2018-07-29T20:55:55.556Z,60.50
2018-07-29T20:58:39.413Z,60.60
2018-07-29T21:03:51.848Z,62.20
2018-07-29T21:06:28.719Z,61.80
2018-07-29T21:09:06.010Z,61.10
2018-07-29T21:14:28.975Z,61.90
2018-07-29T21:17:05.264Z,62.80
2018-07-29T21:19:50.492Z,62.20
2018-07-29T21:22:28.511Z,62.10
2018-07-29T21:27:46.394Z,64.40
2018-07-29T21:30:22.158Z,64.40
2018-07-29T21:35:50.805Z,64.10
2018-07-29T21:41:07.964Z,64.20
2018-07-29T21:43:48.165Z,64.20
2018-07-29T21:46:39.313Z,64.80
2018-07-29T21:49:23.465Z,64.40
2018-07-29T21:52:04.158Z,63.60
2018-07-29T21:54:44.670Z,64.90
2018-07-29T21:57:23.321Z,65.50
2018-07-29T22:00:07.100Z,66.00
2018-07-29T22:02:49.671Z,63.90
2018-07-29T22:05:35.593Z,63.60
2018-07-29T22:08:13.414Z,65.50
2018-07-29T22:10:54.958Z,66.30
2018-07-29T22:13:32.670Z,66.80
2018-07-29T22:16:15.755Z,67.40
2018-07-29T22:18:56.870Z,67.50
2018-07-29T22:21:34.228Z,67.30
2018-07-29T22:24:15.344Z,68.80
2018-07-29T22:27:00.201Z,68.30
2018-07-29T22:32:20.434Z,68.80
2018-07-29T22:35:01.136Z,69.50
2018-07-29T22:37:41.771Z,69.60
2018-07-29T22:40:22.641Z,69.60
2018-07-29T22:43:08.402Z,70.50
2018-07-29T22:45:52.583Z,70.60
2018-07-29T22:48:31.877Z,70.50
2018-07-29T22:57:02.175Z,69.50
2018-07-29T22:59:37.688Z,68.40
2018-07-29T23:02:15.128Z,69.30
2018-07-29T23:04:51.123Z,69.40
2018-07-29T23:10:24.512Z,70.00
2018-07-29T23:13:08.601Z,70.10
2018-07-29T23:15:49.120Z,70.00
2018-07-29T23:18:33.702Z,70.50
2018-07-29T23:21:10.961Z,70.30
2018-07-29T23:23:49.720Z,70.90
2018-07-29T23:26:31.796Z,70.90
2018-07-29T23:29:14.912Z,70.50
2018-07-29T23:31:58.718Z,71.10
2018-07-29T23:34:43.945Z,71.50
2018-07-29T23:37:24.354Z,71.20
2018-07-29T23:40:05.071Z,70.70
2018-07-29T23:45:23.540Z,72.00
2018-07-29T23:48:07.218Z,72.60
2018-07-29T23:50:51.449Z,71.90
2018-07-29T23:53:28.035Z,71.60
2018-07-29T23:58:55.172Z,71.70
